Date,TemperatureHighF,TemperatureAvgF,TemperatureLowF,DewpointHighF,DewpointAvgF,DewpointLowF,HumidityHigh,HumidityAvg,HumidityLow,PressureMaxIn,PressureMinIn,WindSpeedMaxMPH,WindSpeedAvgMPH,GustSpeedMaxMPH,PrecipitationSumIn
2013-10-1,82,68,53,57,54,50,91,65,39,29.88,29.73,12,3,12,0.00
2013-10-2,85,71,58,67,61,54,97,74,45,29.89,29.75,18,5,18,0.00
2013-10-3,81,70,61,69,64,59,95,81,64,29.82,29.60,33,8,33,1.83
2013-10-4,87,69,54,72,61,40,96,78,43,29.85,29.55,21,11,21,0.13
2013-10-5,54,48,43,40,35,33,74,60,47,29.91,29.81,23,10,23,0.00
2013-10-6,53,47,42,46,42,36,96,82,66,29.99,29.78,28,11,28,0.00
2013-10-7,75,57,41,47,40,36,88,58,27,30.08,29.96,17,4,17,0.00
2013-10-8,78,62,46,48,44,42,84,57,31,29.98,29.85,24,9,24,0.00
2013-10-9,80,64,51,53,50,47,85,62,38,29.95,29.87,21,10,21,0.00
2013-10-10,81,66,52,58,53,48,87,65,42,29.94,29.73,22,10,22,0.00
2013-10-11,80,67,54,60,50,38,85,61,22,29.85,29.58,25,13,25,0.00
2013-10-12,67,52,39,43,37,32,93,62,27,30.25,29.85,16,3,16,0.00
2013-10-13,70,53,34,40,36,33,95,58,27,30.39,30.25,14,5,16,0.00
2013-10-14,62,55,49,60,47,35,96,74,53,30.25,29.70,28,12,28,0.00
2013-10-15,57,49,44,52,40,36,89,72,60,30.05,29.78,28,15,28,0.00
2013-10-16,59,47,37,42,37,32,91,70,38,30.07,29.94,15,6,15,0.00
2013-10-17,61,46,33,43,37,32,97,74,44,30.05,29.88,23,7,23,0.00
2013-10-18,49,41,34,38,33,29,93,74,47,30.13,30.02,10,4,10,0.00
2013-10-19,64,47,30,49,35,29,97,67,33,30.02,29.80,21,5,21,0.00
2013-10-20,64,51,40,46,39,35,85,65,39,29.98,29.70,18,5,18,0.00
2013-10-21,56,43,28,38,34,26,96,72,46,30.10,29.92,16,4,16,0.00
2013-10-22,52,45,34,45,38,32,91,77,60,30.11,29.85,30,9,30,0.00
2013-10-23,52,39,27,40,34,26,97,82,54,30.21,30.03,15,3,15,0.00
2013-10-24,42,34,26,35,29,23,94,83,47,30.41,30.20,17,3,17,0.00
2013-10-25,60,41,24,34,28,21,93,64,35,30.42,30.07,21,5,21,0.00
2013-10-26,52,44,26,38,32,24,90,66,41,30.20,30.01,18,6,18,0.00
2013-10-27,70,46,24,38,31,22,95,61,28,30.15,29.82,20,4,20,0.00
2013-10-28,56,47,37,40,36,31,85,67,51,30.16,29.91,23,9,23,0.00
2013-10-29,56,49,44,56,47,39,100,92,67,30.13,29.89,14,6,14,0.10
2013-10-30,59,51,45,57,50,43,100,96,89,29.91,29.70,17,6,17,0.46
2013-10-31,58,46,39,47,40,36,100,82,51,29.74,29.50,22,3,22,0.00